sensor_id;sensor_type;location;lat;lon;timestamp;P1;durP1;ratioP1;P2;durP2;ratioP2
74626;SDS011;63132;52.268;5.192;2023-02-19T00:01:20;30.08;;;7.85;;
74626;SDS011;63132;52.268;5.192;2023-02-19T00:03:57;35.50;;;7.18;;
74626;SDS011;63132;52.268;5.192;2023-02-19T00:06:25;32.78;;;6.70;;
74626;SDS011;63132;52.268;5.192;2023-02-19T00:08:52;29.75;;;7.45;;
74626;SDS011;63132;52.268;5.192;2023-02-19T00:11:22;29.38;;;7.10;;
74626;SDS011;63132;52.268;5.192;2023-02-19T00:13:50;33.95;;;7.53;;
74626;SDS011;63132;52.268;5.192;2023-02-19T00:18:55;31.63;;;9.25;;
74626;SDS011;63132;52.268;5.192;2023-02-19T00:21:22;23.08;;;8.00;;
74626;SDS011;63132;52.268;5.192;2023-02-19T00:23:52;28.95;;;9.30;;
74626;SDS011;63132;52.268;5.192;2023-02-19T00:26:19;34.08;;;8.68;;
74626;SDS011;63132;52.268;5.192;2023-02-19T00:28:46;21.05;;;7.88;;
74626;SDS011;63132;52.268;5.192;2023-02-19T00:33:44;25.30;;;8.35;;
74626;SDS011;63132;52.268;5.192;2023-02-19T00:36:10;28.77;;;9.68;;
74626;SDS011;63132;52.268;5.192;2023-02-19T00:38:37;33.28;;;9.55;;
74626;SDS011;63132;52.268;5.192;2023-02-19T00:41:03;34.15;;;9.45;;
74626;SDS011;63132;52.268;5.192;2023-02-19T00:43:44;30.13;;;7.93;;
74626;SDS011;63132;52.268;5.192;2023-02-19T00:46:09;25.77;;;8.50;;
74626;SDS011;63132;52.268;5.192;2023-02-19T00:48:34;28.85;;;9.32;;
74626;SDS011;63132;52.268;5.192;2023-02-19T00:51:00;36.88;;;10.50;;
74626;SDS011;63132;52.268;5.192;2023-02-19T00:53:25;32.53;;;10.73;;
74626;SDS011;63132;52.268;5.192;2023-02-19T00:55:50;23.23;;;8.55;;
74626;SDS011;63132;52.268;5.192;2023-02-19T00:58:16;32.38;;;10.23;;
74626;SDS011;63132;52.268;5.192;2023-02-19T01:00:41;27.02;;;8.93;;
74626;SDS011;63132;52.268;5.192;2023-02-19T01:03:06;27.58;;;10.63;;
74626;SDS011;63132;52.268;5.192;2023-02-19T01:05:32;30.23;;;11.27;;
74626;SDS011;63132;52.268;5.192;2023-02-19T01:07:57;29.50;;;10.98;;
74626;SDS011;63132;52.268;5.192;2023-02-19T01:10:22;30.08;;;10.82;;
74626;SDS011;63132;52.268;5.192;2023-02-19T01:12:48;39.30;;;11.48;;
74626;SDS011;63132;52.268;5.192;2023-02-19T01:15:13;30.60;;;11.25;;
74626;SDS011;63132;52.268;5.192;2023-02-19T01:17:39;30.00;;;10.60;;
74626;SDS011;63132;52.268;5.192;2023-02-19T01:20:04;24.00;;;10.32;;
74626;SDS011;63132;52.268;5.192;2023-02-19T01:22:30;23.85;;;10.75;;
74626;SDS011;63132;52.268;5.192;2023-02-19T01:24:55;28.33;;;10.20;;
74626;SDS011;63132;52.268;5.192;2023-02-19T01:27:20;25.48;;;10.15;;
74626;SDS011;63132;52.268;5.192;2023-02-19T01:29:46;27.10;;;9.68;;
74626;SDS011;63132;52.268;5.192;2023-02-19T01:32:11;22.85;;;9.43;;
74626;SDS011;63132;52.268;5.192;2023-02-19T01:34:37;27.48;;;9.77;;
74626;SDS011;63132;52.268;5.192;2023-02-19T01:37:02;24.63;;;9.98;;
74626;SDS011;63132;52.268;5.192;2023-02-19T01:39:27;26.90;;;9.60;;
74626;SDS011;63132;52.268;5.192;2023-02-19T01:41:53;26.38;;;10.38;;
74626;SDS011;63132;52.268;5.192;2023-02-19T01:46:44;38.57;;;9.77;;
74626;SDS011;63132;52.268;5.192;2023-02-19T01:49:26;27.33;;;9.18;;
74626;SDS011;63132;52.268;5.192;2023-02-19T01:51:59;28.10;;;9.48;;
74626;SDS011;63132;52.268;5.192;2023-02-19T01:54:29;37.65;;;10.07;;
74626;SDS011;63132;52.268;5.192;2023-02-19T01:57:00;26.95;;;10.05;;
74626;SDS011;63132;52.268;5.192;2023-02-19T01:59:31;22.92;;;9.35;;
74626;SDS011;63132;52.268;5.192;2023-02-19T02:01:58;22.75;;;9.23;;
74626;SDS011;63132;52.268;5.192;2023-02-19T02:04:24;27.33;;;10.93;;
74626;SDS011;63132;52.268;5.192;2023-02-19T02:06:52;31.70;;;10.10;;
74626;SDS011;63132;52.268;5.192;2023-02-19T02:09:25;29.30;;;10.00;;
74626;SDS011;63132;52.268;5.192;2023-02-19T02:12:11;25.77;;;10.18;;
74626;SDS011;63132;52.268;5.192;2023-02-19T02:14:38;28.15;;;9.93;;
74626;SDS011;63132;52.268;5.192;2023-02-19T02:27:42;28.35;;;9.32;;
74626;SDS011;63132;52.268;5.192;2023-02-19T02:35:54;23.85;;;8.73;;
74626;SDS011;63132;52.268;5.192;2023-02-19T02:38:24;22.75;;;8.90;;
74626;SDS011;63132;52.268;5.192;2023-02-19T02:40:53;19.38;;;7.80;;
74626;SDS011;63132;52.268;5.192;2023-02-19T02:43:19;19.70;;;6.65;;
74626;SDS011;63132;52.268;5.192;2023-02-19T02:45:45;16.45;;;6.57;;
74626;SDS011;63132;52.268;5.192;2023-02-19T02:50:38;27.83;;;6.30;;
74626;SDS011;63132;52.268;5.192;2023-02-19T02:53:10;19.35;;;5.18;;
74626;SDS011;63132;52.268;5.192;2023-02-19T02:56:00;18.63;;;5.45;;
74626;SDS011;63132;52.268;5.192;2023-02-19T02:58:27;18.33;;;5.28;;
74626;SDS011;63132;52.268;5.192;2023-02-19T03:00:56;14.98;;;5.00;;
74626;SDS011;63132;52.268;5.192;2023-02-19T03:03:44;15.77;;;4.85;;
74626;SDS011;63132;52.268;5.192;2023-02-19T03:06:14;16.13;;;4.65;;
74626;SDS011;63132;52.268;5.192;2023-02-19T03:08:45;26.25;;;6.15;;
74626;SDS011;63132;52.268;5.192;2023-02-19T03:11:17;20.58;;;5.15;;
74626;SDS011;63132;52.268;5.192;2023-02-19T03:14:10;16.92;;;5.65;;
74626;SDS011;63132;52.268;5.192;2023-02-19T03:17:00;22.95;;;6.32;;
74626;SDS011;63132;52.268;5.192;2023-02-19T03:19:49;15.73;;;5.72;;
74626;SDS011;63132;52.268;5.192;2023-02-19T03:22:21;19.15;;;6.95;;
74626;SDS011;63132;52.268;5.192;2023-02-19T03:24:53;19.98;;;7.28;;
74626;SDS011;63132;52.268;5.192;2023-02-19T03:27:43;22.92;;;7.15;;
74626;SDS011;63132;52.268;5.192;2023-02-19T03:30:14;17.80;;;6.55;;
74626;SDS011;63132;52.268;5.192;2023-02-19T03:35:29;24.08;;;7.50;;
74626;SDS011;63132;52.268;5.192;2023-02-19T03:38:14;21.70;;;7.00;;
74626;SDS011;63132;52.268;5.192;2023-02-19T03:46:13;18.67;;;7.45;;
74626;SDS011;63132;52.268;5.192;2023-02-19T03:48:51;21.73;;;6.22;;
74626;SDS011;63132;52.268;5.192;2023-02-19T03:51:25;19.70;;;6.30;;
74626;SDS011;63132;52.268;5.192;2023-02-19T03:54:15;21.38;;;6.72;;
74626;SDS011;63132;52.268;5.192;2023-02-19T03:57:02;20.42;;;6.10;;
74626;SDS011;63132;52.268;5.192;2023-02-19T04:05:20;17.85;;;7.10;;
74626;SDS011;63132;52.268;5.192;2023-02-19T04:07:50;21.63;;;7.00;;
74626;SDS011;63132;52.268;5.192;2023-02-19T04:10:19;24.52;;;7.50;;
74626;SDS011;63132;52.268;5.192;2023-02-19T04:12:54;18.88;;;7.18;;
74626;SDS011;63132;52.268;5.192;2023-02-19T04:15:24;20.35;;;8.55;;
74626;SDS011;63132;52.268;5.192;2023-02-19T04:17:54;21.35;;;7.07;;
74626;SDS011;63132;52.268;5.192;2023-02-19T04:20:23;21.55;;;8.65;;
74626;SDS011;63132;52.268;5.192;2023-02-19T04:22:53;25.08;;;8.50;;
74626;SDS011;63132;52.268;5.192;2023-02-19T04:27:46;23.17;;;7.82;;
74626;SDS011;63132;52.268;5.192;2023-02-19T04:30:11;22.02;;;6.95;;
74626;SDS011;63132;52.268;5.192;2023-02-19T04:32:38;25.48;;;7.55;;
74626;SDS011;63132;52.268;5.192;2023-02-19T04:35:03;30.98;;;8.18;;
74626;SDS011;63132;52.268;5.192;2023-02-19T04:37:29;24.98;;;7.05;;
74626;SDS011;63132;52.268;5.192;2023-02-19T04:39:54;26.58;;;7.18;;
74626;SDS011;63132;52.268;5.192;2023-02-19T04:42:20;19.40;;;7.38;;
74626;SDS011;63132;52.268;5.192;2023-02-19T04:44:45;24.95;;;7.47;;
74626;SDS011;63132;52.268;5.192;2023-02-19T04:47:11;24.27;;;7.47;;
74626;SDS011;63132;52.268;5.192;2023-02-19T04:49:36;28.93;;;8.77;;
74626;SDS011;63132;52.268;5.192;2023-02-19T04:52:02;26.92;;;9.10;;
74626;SDS011;63132;52.268;5.192;2023-02-19T04:54:27;24.15;;;7.65;;
74626;SDS011;63132;52.268;5.192;2023-02-19T04:56:52;22.90;;;7.20;;
74626;SDS011;63132;52.268;5.192;2023-02-19T04:59:18;24.13;;;7.63;;
74626;SDS011;63132;52.268;5.192;2023-02-19T05:01:43;27.33;;;8.73;;
74626;SDS011;63132;52.268;5.192;2023-02-19T05:04:09;26.00;;;7.22;;
74626;SDS011;63132;52.268;5.192;2023-02-19T05:06:34;17.42;;;6.93;;
74626;SDS011;63132;52.268;5.192;2023-02-19T05:09:00;22.05;;;7.78;;
74626;SDS011;63132;52.268;5.192;2023-02-19T05:11:25;27.63;;;7.23;;
74626;SDS011;63132;52.268;5.192;2023-02-19T05:13:50;25.63;;;8.02;;
74626;SDS011;63132;52.268;5.192;2023-02-19T05:16:16;20.63;;;7.72;;
74626;SDS011;63132;52.268;5.192;2023-02-19T05:18:43;25.60;;;8.18;;
74626;SDS011;63132;52.268;5.192;2023-02-19T05:21:09;18.08;;;8.23;;
74626;SDS011;63132;52.268;5.192;2023-02-19T05:26:05;26.85;;;8.50;;
74626;SDS011;63132;52.268;5.192;2023-02-19T05:28:32;27.23;;;8.85;;
74626;SDS011;63132;52.268;5.192;2023-02-19T05:31:02;29.88;;;9.95;;
74626;SDS011;63132;52.268;5.192;2023-02-19T05:33:30;26.88;;;9.80;;
74626;SDS011;63132;52.268;5.192;2023-02-19T05:35:56;26.55;;;9.48;;
74626;SDS011;63132;52.268;5.192;2023-02-19T05:38:22;31.00;;;10.30;;
74626;SDS011;63132;52.268;5.192;2023-02-19T05:40:48;36.70;;;12.60;;
74626;SDS011;63132;52.268;5.192;2023-02-19T05:43:14;33.50;;;12.05;;
74626;SDS011;63132;52.268;5.192;2023-02-19T05:45:40;33.67;;;12.13;;
74626;SDS011;63132;52.268;5.192;2023-02-19T05:48:07;30.65;;;12.82;;
74626;SDS011;63132;52.268;5.192;2023-02-19T05:50:33;29.25;;;12.45;;
74626;SDS011;63132;52.268;5.192;2023-02-19T05:53:00;38.33;;;15.65;;
74626;SDS011;63132;52.268;5.192;2023-02-19T05:55:27;38.72;;;17.55;;
74626;SDS011;63132;52.268;5.192;2023-02-19T05:57:53;36.33;;;16.38;;
74626;SDS011;63132;52.268;5.192;2023-02-19T06:00:19;37.00;;;16.60;;
74626;SDS011;63132;52.268;5.192;2023-02-19T06:05:10;36.42;;;16.45;;
74626;SDS011;63132;52.268;5.192;2023-02-19T06:07:36;41.45;;;17.10;;
74626;SDS011;63132;52.268;5.192;2023-02-19T06:10:04;39.22;;;18.02;;
74626;SDS011;63132;52.268;5.192;2023-02-19T06:12:30;39.60;;;17.73;;
74626;SDS011;63132;52.268;5.192;2023-02-19T06:14:56;41.58;;;18.67;;
74626;SDS011;63132;52.268;5.192;2023-02-19T06:17:21;39.67;;;19.58;;
74626;SDS011;63132;52.268;5.192;2023-02-19T06:19:47;42.72;;;18.95;;
74626;SDS011;63132;52.268;5.192;2023-02-19T06:22:13;40.50;;;19.38;;
74626;SDS011;63132;52.268;5.192;2023-02-19T06:24:39;50.53;;;20.50;;
74626;SDS011;63132;52.268;5.192;2023-02-19T06:27:08;42.03;;;20.05;;
74626;SDS011;63132;52.268;5.192;2023-02-19T06:29:33;42.55;;;19.35;;
74626;SDS011;63132;52.268;5.192;2023-02-19T06:32:02;46.38;;;20.00;;
74626;SDS011;63132;52.268;5.192;2023-02-19T06:36:53;46.92;;;18.70;;
74626;SDS011;63132;52.268;5.192;2023-02-19T06:39:18;42.45;;;19.80;;
74626;SDS011;63132;52.268;5.192;2023-02-19T06:41:44;37.03;;;18.17;;
74626;SDS011;63132;52.268;5.192;2023-02-19T06:44:09;46.43;;;19.80;;
74626;SDS011;63132;52.268;5.192;2023-02-19T06:46:35;37.47;;;18.83;;
74626;SDS011;63132;52.268;5.192;2023-02-19T06:49:02;52.35;;;20.20;;
74626;SDS011;63132;52.268;5.192;2023-02-19T06:51:28;30.25;;;16.88;;
74626;SDS011;63132;52.268;5.192;2023-02-19T06:53:54;45.70;;;19.23;;
74626;SDS011;63132;52.268;5.192;2023-02-19T06:56:27;40.58;;;17.65;;
74626;SDS011;63132;52.268;5.192;2023-02-19T06:58:54;44.30;;;18.70;;
74626;SDS011;63132;52.268;5.192;2023-02-19T07:01:21;42.15;;;17.77;;
74626;SDS011;63132;52.268;5.192;2023-02-19T07:03:48;41.50;;;18.60;;
74626;SDS011;63132;52.268;5.192;2023-02-19T07:06:13;42.58;;;18.80;;
74626;SDS011;63132;52.268;5.192;2023-02-19T07:08:39;44.08;;;19.17;;
74626;SDS011;63132;52.268;5.192;2023-02-19T07:11:04;43.53;;;19.75;;
74626;SDS011;63132;52.268;5.192;2023-02-19T07:13:30;43.75;;;19.63;;
74626;SDS011;63132;52.268;5.192;2023-02-19T07:15:59;42.67;;;19.33;;
74626;SDS011;63132;52.268;5.192;2023-02-19T07:18:26;49.22;;;20.23;;
74626;SDS011;63132;52.268;5.192;2023-02-19T07:20:53;47.50;;;22.23;;
74626;SDS011;63132;52.268;5.192;2023-02-19T07:23:18;39.42;;;18.45;;
74626;SDS011;63132;52.268;5.192;2023-02-19T07:25:44;40.75;;;17.52;;
74626;SDS011;63132;52.268;5.192;2023-02-19T07:28:09;40.28;;;19.13;;
74626;SDS011;63132;52.268;5.192;2023-02-19T07:30:34;37.17;;;17.52;;
74626;SDS011;63132;52.268;5.192;2023-02-19T07:33:00;42.65;;;18.58;;
74626;SDS011;63132;52.268;5.192;2023-02-19T07:35:25;40.28;;;19.17;;
74626;SDS011;63132;52.268;5.192;2023-02-19T07:37:51;37.45;;;17.95;;
74626;SDS011;63132;52.268;5.192;2023-02-19T07:40:17;40.50;;;18.70;;
74626;SDS011;63132;52.268;5.192;2023-02-19T07:42:42;34.75;;;17.33;;
74626;SDS011;63132;52.268;5.192;2023-02-19T07:45:08;49.03;;;19.23;;
74626;SDS011;63132;52.268;5.192;2023-02-19T07:47:33;37.10;;;16.40;;
74626;SDS011;63132;52.268;5.192;2023-02-19T07:49:59;37.65;;;17.55;;
74626;SDS011;63132;52.268;5.192;2023-02-19T07:52:24;35.83;;;17.13;;
74626;SDS011;63132;52.268;5.192;2023-02-19T07:54:49;38.22;;;15.52;;
74626;SDS011;63132;52.268;5.192;2023-02-19T07:57:15;29.00;;;15.88;;
74626;SDS011;63132;52.268;5.192;2023-02-19T07:59:40;25.02;;;14.57;;
74626;SDS011;63132;52.268;5.192;2023-02-19T08:02:15;33.73;;;15.10;;
74626;SDS011;63132;52.268;5.192;2023-02-19T08:05:00;32.03;;;14.98;;
74626;SDS011;63132;52.268;5.192;2023-02-19T08:07:33;30.40;;;15.20;;
74626;SDS011;63132;52.268;5.192;2023-02-19T08:09:59;34.55;;;14.95;;
74626;SDS011;63132;52.268;5.192;2023-02-19T08:12:43;29.85;;;14.30;;
74626;SDS011;63132;52.268;5.192;2023-02-19T08:15:27;28.73;;;16.50;;
74626;SDS011;63132;52.268;5.192;2023-02-19T08:17:53;30.25;;;14.38;;
74626;SDS011;63132;52.268;5.192;2023-02-19T08:20:18;26.02;;;14.75;;
74626;SDS011;63132;52.268;5.192;2023-02-19T08:22:44;34.72;;;13.88;;
74626;SDS011;63132;52.268;5.192;2023-02-19T08:25:09;28.17;;;13.50;;
74626;SDS011;63132;52.268;5.192;2023-02-19T08:27:35;28.27;;;14.23;;
74626;SDS011;63132;52.268;5.192;2023-02-19T08:30:00;37.20;;;14.57;;
74626;SDS011;63132;52.268;5.192;2023-02-19T08:32:25;38.92;;;17.55;;
74626;SDS011;63132;52.268;5.192;2023-02-19T08:34:51;27.45;;;12.85;;
74626;SDS011;63132;52.268;5.192;2023-02-19T08:37:16;43.70;;;13.48;;
74626;SDS011;63132;52.268;5.192;2023-02-19T08:39:41;33.58;;;12.80;;
74626;SDS011;63132;52.268;5.192;2023-02-19T08:42:07;33.75;;;13.18;;
74626;SDS011;63132;52.268;5.192;2023-02-19T08:44:32;32.55;;;12.40;;
74626;SDS011;63132;52.268;5.192;2023-02-19T08:46:58;34.08;;;13.35;;
74626;SDS011;63132;52.268;5.192;2023-02-19T08:49:26;33.65;;;12.23;;
74626;SDS011;63132;52.268;5.192;2023-02-19T08:51:52;32.58;;;12.60;;
74626;SDS011;63132;52.268;5.192;2023-02-19T08:54:17;29.95;;;12.70;;
74626;SDS011;63132;52.268;5.192;2023-02-19T08:56:43;32.70;;;12.30;;
74626;SDS011;63132;52.268;5.192;2023-02-19T08:59:08;29.25;;;11.68;;
74626;SDS011;63132;52.268;5.192;2023-02-19T09:01:33;36.37;;;13.33;;
74626;SDS011;63132;52.268;5.192;2023-02-19T09:03:59;33.88;;;13.05;;
74626;SDS011;63132;52.268;5.192;2023-02-19T09:06:24;36.17;;;15.63;;
74626;SDS011;63132;52.268;5.192;2023-02-19T09:08:50;35.95;;;15.00;;
74626;SDS011;63132;52.268;5.192;2023-02-19T09:11:15;33.17;;;15.35;;
74626;SDS011;63132;52.268;5.192;2023-02-19T09:13:41;38.63;;;16.73;;
74626;SDS011;63132;52.268;5.192;2023-02-19T09:16:07;36.45;;;15.30;;
74626;SDS011;63132;52.268;5.192;2023-02-19T09:18:33;44.83;;;17.02;;
74626;SDS011;63132;52.268;5.192;2023-02-19T09:20:59;33.22;;;14.90;;
74626;SDS011;63132;52.268;5.192;2023-02-19T09:23:29;21.92;;;7.65;;
74626;SDS011;63132;52.268;5.192;2023-02-19T09:25:57;13.70;;;6.07;;
74626;SDS011;63132;52.268;5.192;2023-02-19T09:28:24;15.52;;;5.05;;
74626;SDS011;63132;52.268;5.192;2023-02-19T09:30:49;8.95;;;4.05;;
74626;SDS011;63132;52.268;5.192;2023-02-19T09:33:15;7.70;;;3.67;;
74626;SDS011;63132;52.268;5.192;2023-02-19T09:35:40;8.52;;;3.72;;
74626;SDS011;63132;52.268;5.192;2023-02-19T09:38:05;7.13;;;3.20;;
74626;SDS011;63132;52.268;5.192;2023-02-19T09:40:31;5.88;;;2.67;;
74626;SDS011;63132;52.268;5.192;2023-02-19T09:42:56;7.97;;;2.90;;
74626;SDS011;63132;52.268;5.192;2023-02-19T09:47:51;7.78;;;2.95;;
74626;SDS011;63132;52.268;5.192;2023-02-19T09:50:20;7.53;;;3.00;;
74626;SDS011;63132;52.268;5.192;2023-02-19T09:52:54;9.32;;;3.33;;
74626;SDS011;63132;52.268;5.192;2023-02-19T09:58:07;8.60;;;3.33;;
74626;SDS011;63132;52.268;5.192;2023-02-19T10:00:39;10.82;;;3.55;;
74626;SDS011;63132;52.268;5.192;2023-02-19T10:03:05;11.98;;;4.35;;
74626;SDS011;63132;52.268;5.192;2023-02-19T10:05:38;9.63;;;4.32;;
74626;SDS011;63132;52.268;5.192;2023-02-19T10:08:08;11.15;;;4.00;;
74626;SDS011;63132;52.268;5.192;2023-02-19T10:10:40;9.20;;;4.57;;
74626;SDS011;63132;52.268;5.192;2023-02-19T10:13:18;9.40;;;4.13;;
74626;SDS011;63132;52.268;5.192;2023-02-19T10:15:50;8.10;;;3.75;;
74626;SDS011;63132;52.268;5.192;2023-02-19T10:18:19;9.27;;;3.95;;
74626;SDS011;63132;52.268;5.192;2023-02-19T10:20:47;9.80;;;3.80;;
74626;SDS011;63132;52.268;5.192;2023-02-19T10:23:14;9.45;;;4.47;;
74626;SDS011;63132;52.268;5.192;2023-02-19T10:25:48;10.40;;;4.10;;
74626;SDS011;63132;52.268;5.192;2023-02-19T10:28:19;12.38;;;4.15;;
74626;SDS011;63132;52.268;5.192;2023-02-19T10:30:47;9.57;;;4.57;;
74626;SDS011;63132;52.268;5.192;2023-02-19T10:33:17;11.88;;;4.50;;
74626;SDS011;63132;52.268;5.192;2023-02-19T10:38:21;11.27;;;4.55;;
74626;SDS011;63132;52.268;5.192;2023-02-19T10:43:39;7.53;;;3.80;;
74626;SDS011;63132;52.268;5.192;2023-02-19T10:48:48;8.77;;;4.43;;
74626;SDS011;63132;52.268;5.192;2023-02-19T10:51:19;9.98;;;4.18;;
74626;SDS011;63132;52.268;5.192;2023-02-19T10:53:48;8.73;;;3.85;;
74626;SDS011;63132;52.268;5.192;2023-02-19T10:56:22;8.75;;;3.58;;
74626;SDS011;63132;52.268;5.192;2023-02-19T10:58:49;10.05;;;4.38;;
74626;SDS011;63132;52.268;5.192;2023-02-19T11:03:43;10.45;;;4.45;;
74626;SDS011;63132;52.268;5.192;2023-02-19T11:06:11;8.80;;;4.28;;
74626;SDS011;63132;52.268;5.192;2023-02-19T11:08:51;8.35;;;4.40;;
74626;SDS011;63132;52.268;5.192;2023-02-19T11:13:56;9.48;;;4.80;;
74626;SDS011;63132;52.268;5.192;2023-02-19T11:16:35;8.60;;;4.03;;
74626;SDS011;63132;52.268;5.192;2023-02-19T11:19:03;8.82;;;4.25;;
74626;SDS011;63132;52.268;5.192;2023-02-19T11:21:29;8.20;;;3.97;;
74626;SDS011;63132;52.268;5.192;2023-02-19T11:23:57;9.73;;;4.07;;
74626;SDS011;63132;52.268;5.192;2023-02-19T11:26:25;11.43;;;4.20;;
74626;SDS011;63132;52.268;5.192;2023-02-19T11:28:55;8.90;;;3.88;;
74626;SDS011;63132;52.268;5.192;2023-02-19T11:31:23;7.53;;;4.28;;
74626;SDS011;63132;52.268;5.192;2023-02-19T11:33:59;7.20;;;3.78;;
74626;SDS011;63132;52.268;5.192;2023-02-19T11:36:34;7.25;;;3.65;;
74626;SDS011;63132;52.268;5.192;2023-02-19T11:39:25;8.35;;;4.32;;
74626;SDS011;63132;52.268;5.192;2023-02-19T11:44:55;7.57;;;4.18;;
74626;SDS011;63132;52.268;5.192;2023-02-19T12:01:22;7.63;;;4.47;;
74626;SDS011;63132;52.268;5.192;2023-02-19T12:04:21;8.20;;;4.22;;
74626;SDS011;63132;52.268;5.192;2023-02-19T12:09:42;5.72;;;2.88;;
74626;SDS011;63132;52.268;5.192;2023-02-19T12:15:18;6.32;;;2.72;;
74626;SDS011;63132;52.268;5.192;2023-02-19T12:18:24;5.38;;;2.67;;
74626;SDS011;63132;52.268;5.192;2023-02-19T12:20:53;5.07;;;2.47;;
74626;SDS011;63132;52.268;5.192;2023-02-19T12:34:27;5.05;;;2.50;;
74626;SDS011;63132;52.268;5.192;2023-02-19T12:44:50;3.97;;;1.88;;
74626;SDS011;63132;52.268;5.192;2023-02-19T12:47:21;2.60;;;1.52;;
74626;SDS011;63132;52.268;5.192;2023-02-19T12:50:15;2.58;;;1.50;;
74626;SDS011;63132;52.268;5.192;2023-02-19T12:52:38;5.20;;;1.35;;
74626;SDS011;63132;52.268;5.192;2023-02-19T12:57:54;2.92;;;1.60;;
74626;SDS011;63132;52.268;5.192;2023-02-19T13:03:27;4.55;;;1.75;;
74626;SDS011;63132;52.268;5.192;2023-02-19T13:06:14;4.70;;;2.10;;
74626;SDS011;63132;52.268;5.192;2023-02-19T13:08:44;4.90;;;2.00;;
74626;SDS011;63132;52.268;5.192;2023-02-19T13:11:21;3.83;;;1.40;;
74626;SDS011;63132;52.268;5.192;2023-02-19T13:14:26;1.90;;;1.15;;
74626;SDS011;63132;52.268;5.192;2023-02-19T13:16:59;2.47;;;1.05;;
74626;SDS011;63132;52.268;5.192;2023-02-19T13:19:29;3.45;;;1.10;;
74626;SDS011;63132;52.268;5.192;2023-02-19T13:25:05;1.13;;;0.60;;
74626;SDS011;63132;52.268;5.192;2023-02-19T13:36:11;0.85;;;0.50;;
74626;SDS011;63132;52.268;5.192;2023-02-19T13:38:44;2.67;;;0.50;;
74626;SDS011;63132;52.268;5.192;2023-02-19T13:41:16;2.95;;;0.57;;
74626;SDS011;63132;52.268;5.192;2023-02-19T13:43:43;1.45;;;0.52;;
74626;SDS011;63132;52.268;5.192;2023-02-19T13:46:11;0.68;;;0.22;;
74626;SDS011;63132;52.268;5.192;2023-02-19T13:48:40;1.08;;;0.60;;
74626;SDS011;63132;52.268;5.192;2023-02-19T13:53:57;0.82;;;0.60;;
74626;SDS011;63132;52.268;5.192;2023-02-19T13:58:56;1.92;;;0.82;;
74626;SDS011;63132;52.268;5.192;2023-02-19T14:02:04;2.88;;;0.95;;
74626;SDS011;63132;52.268;5.192;2023-02-19T14:28:23;1.70;;;0.70;;
74626;SDS011;63132;52.268;5.192;2023-02-19T14:39:21;1.20;;;0.40;;
74626;SDS011;63132;52.268;5.192;2023-02-19T14:41:57;2.42;;;0.80;;
74626;SDS011;63132;52.268;5.192;2023-02-19T14:44:26;2.58;;;0.93;;
74626;SDS011;63132;52.268;5.192;2023-02-19T14:52:24;2.55;;;0.93;;
74626;SDS011;63132;52.268;5.192;2023-02-19T14:54:55;3.28;;;1.10;;
74626;SDS011;63132;52.268;5.192;2023-02-19T14:57:28;2.67;;;1.17;;
74626;SDS011;63132;52.268;5.192;2023-02-19T15:02:27;2.13;;;1.38;;
74626;SDS011;63132;52.268;5.192;2023-02-19T15:04:54;2.40;;;0.80;;
74626;SDS011;63132;52.268;5.192;2023-02-19T15:07:23;2.22;;;0.98;;
74626;SDS011;63132;52.268;5.192;2023-02-19T15:09:55;2.38;;;0.80;;
74626;SDS011;63132;52.268;5.192;2023-02-19T15:12:27;3.08;;;2.00;;
74626;SDS011;63132;52.268;5.192;2023-02-19T15:14:58;2.40;;;1.50;;
74626;SDS011;63132;52.268;5.192;2023-02-19T15:17:28;3.45;;;1.25;;
74626;SDS011;63132;52.268;5.192;2023-02-19T15:19:56;3.22;;;0.95;;
74626;SDS011;63132;52.268;5.192;2023-02-19T15:22:27;2.65;;;0.98;;
74626;SDS011;63132;52.268;5.192;2023-02-19T15:24:55;2.33;;;1.20;;
74626;SDS011;63132;52.268;5.192;2023-02-19T15:27:24;6.22;;;1.50;;
74626;SDS011;63132;52.268;5.192;2023-02-19T15:29:50;10.95;;;3.10;;
74626;SDS011;63132;52.268;5.192;2023-02-19T15:32:18;5.35;;;2.22;;
74626;SDS011;63132;52.268;5.192;2023-02-19T15:34:56;3.13;;;1.33;;
74626;SDS011;63132;52.268;5.192;2023-02-19T15:37:27;4.30;;;1.38;;
74626;SDS011;63132;52.268;5.192;2023-02-19T15:39:55;2.03;;;1.42;;
74626;SDS011;63132;52.268;5.192;2023-02-19T15:42:26;3.38;;;1.38;;
74626;SDS011;63132;52.268;5.192;2023-02-19T15:47:27;3.47;;;1.40;;
74626;SDS011;63132;52.268;5.192;2023-02-19T15:50:14;4.45;;;1.80;;
74626;SDS011;63132;52.268;5.192;2023-02-19T15:58:01;3.25;;;2.20;;
74626;SDS011;63132;52.268;5.192;2023-02-19T16:00:41;3.95;;;2.50;;
74626;SDS011;63132;52.268;5.192;2023-02-19T16:03:18;2.88;;;1.95;;
74626;SDS011;63132;52.268;5.192;2023-02-19T16:05:56;7.03;;;2.70;;
74626;SDS011;63132;52.268;5.192;2023-02-19T16:08:38;5.80;;;2.80;;
74626;SDS011;63132;52.268;5.192;2023-02-19T16:11:06;6.43;;;3.63;;
74626;SDS011;63132;52.268;5.192;2023-02-19T16:13:46;6.88;;;3.60;;
74626;SDS011;63132;52.268;5.192;2023-02-19T16:16:13;7.82;;;3.65;;
74626;SDS011;63132;52.268;5.192;2023-02-19T16:18:44;5.68;;;3.47;;
74626;SDS011;63132;52.268;5.192;2023-02-19T16:21:13;7.85;;;3.80;;
74626;SDS011;63132;52.268;5.192;2023-02-19T16:23:40;6.80;;;3.80;;
74626;SDS011;63132;52.268;5.192;2023-02-19T16:26:08;8.02;;;3.35;;
74626;SDS011;63132;52.268;5.192;2023-02-19T16:28:35;5.22;;;3.33;;
74626;SDS011;63132;52.268;5.192;2023-02-19T16:31:09;6.72;;;3.40;;
74626;SDS011;63132;52.268;5.192;2023-02-19T16:33:37;7.47;;;3.65;;
74626;SDS011;63132;52.268;5.192;2023-02-19T16:41:32;7.53;;;4.72;;
74626;SDS011;63132;52.268;5.192;2023-02-19T16:43:58;6.47;;;4.03;;
74626;SDS011;63132;52.268;5.192;2023-02-19T16:46:25;7.05;;;4.15;;
74626;SDS011;63132;52.268;5.192;2023-02-19T16:48:50;9.02;;;4.97;;
74626;SDS011;63132;52.268;5.192;2023-02-19T16:51:18;7.03;;;3.88;;
74626;SDS011;63132;52.268;5.192;2023-02-19T16:53:48;5.55;;;3.33;;
74626;SDS011;63132;52.268;5.192;2023-02-19T16:56:15;8.07;;;2.90;;
74626;SDS011;63132;52.268;5.192;2023-02-19T16:58:47;8.52;;;3.28;;
74626;SDS011;63132;52.268;5.192;2023-02-19T17:01:13;9.38;;;3.20;;
74626;SDS011;63132;52.268;5.192;2023-02-19T17:03:39;9.90;;;4.00;;
74626;SDS011;63132;52.268;5.192;2023-02-19T17:06:05;4.78;;;2.10;;
74626;SDS011;63132;52.268;5.192;2023-02-19T17:11:01;6.18;;;2.35;;
74626;SDS011;63132;52.268;5.192;2023-02-19T17:13:31;4.43;;;2.35;;
74626;SDS011;63132;52.268;5.192;2023-02-19T17:15:56;6.05;;;2.88;;
74626;SDS011;63132;52.268;5.192;2023-02-19T17:18:22;6.13;;;2.88;;
74626;SDS011;63132;52.268;5.192;2023-02-19T17:20:59;9.05;;;3.00;;
74626;SDS011;63132;52.268;5.192;2023-02-19T17:23:29;6.95;;;2.65;;
74626;SDS011;63132;52.268;5.192;2023-02-19T17:25:54;4.45;;;2.65;;
74626;SDS011;63132;52.268;5.192;2023-02-19T17:28:19;8.95;;;3.67;;
74626;SDS011;63132;52.268;5.192;2023-02-19T17:30:45;10.10;;;4.53;;
74626;SDS011;63132;52.268;5.192;2023-02-19T17:33:11;7.80;;;4.20;;
74626;SDS011;63132;52.268;5.192;2023-02-19T17:35:36;7.32;;;3.50;;
74626;SDS011;63132;52.268;5.192;2023-02-19T17:38:02;6.70;;;3.35;;
74626;SDS011;63132;52.268;5.192;2023-02-19T17:40:33;8.60;;;4.05;;
74626;SDS011;63132;52.268;5.192;2023-02-19T17:42:59;9.63;;;3.97;;
74626;SDS011;63132;52.268;5.192;2023-02-19T17:45:25;6.63;;;3.50;;
74626;SDS011;63132;52.268;5.192;2023-02-19T17:47:50;5.77;;;2.53;;
74626;SDS011;63132;52.268;5.192;2023-02-19T17:50:18;8.30;;;3.30;;
74626;SDS011;63132;52.268;5.192;2023-02-19T17:52:46;4.32;;;2.58;;
74626;SDS011;63132;52.268;5.192;2023-02-19T17:55:11;5.28;;;2.85;;
74626;SDS011;63132;52.268;5.192;2023-02-19T17:57:39;6.65;;;2.72;;